createdAt,value
2023-05-21T00:01:16.145Z,20.50
2023-05-21T00:03:46.384Z,20.40
2023-05-21T00:06:13.937Z,20.40
2023-05-21T00:08:42.553Z,20.40
2023-05-21T00:11:10.476Z,20.40
2023-05-21T00:13:38.701Z,20.40
2023-05-21T00:16:06.527Z,20.40
2023-05-21T00:18:34.454Z,20.40
2023-05-21T00:21:02.099Z,20.40
2023-05-21T00:23:32.958Z,20.40
2023-05-21T00:26:00.348Z,20.40
2023-05-21T00:28:27.653Z,20.40
2023-05-21T00:30:54.971Z,20.40
2023-05-21T00:33:22.781Z,20.40
2023-05-21T00:35:50.106Z,20.30
2023-05-21T00:38:18.758Z,20.30
2023-05-21T00:40:46.143Z,20.40
2023-05-21T00:43:14.372Z,20.30
2023-05-21T00:45:47.550Z,20.40
2023-05-21T00:48:16.058Z,20.40
2023-05-21T00:50:43.380Z,20.50
2023-05-21T00:53:12.728Z,20.50
2023-05-21T00:55:40.703Z,20.40
2023-05-21T00:58:08.917Z,20.40
2023-05-21T01:00:37.624Z,20.40
2023-05-21T01:03:06.424Z,20.30
2023-05-21T01:05:33.955Z,20.30
2023-05-21T01:08:01.988Z,20.30
2023-05-21T01:10:30.541Z,20.40
2023-05-21T01:12:59.227Z,20.40
2023-05-21T01:15:27.516Z,20.40
2023-05-21T01:17:55.908Z,20.40
2023-05-21T01:20:24.921Z,20.20
2023-05-21T01:22:57.032Z,20.20
2023-05-21T01:25:25.427Z,20.30
2023-05-21T01:27:52.711Z,20.30
2023-05-21T01:30:22.460Z,20.30
2023-05-21T01:33:04.874Z,20.30
2023-05-21T01:35:44.309Z,20.30
2023-05-21T01:38:20.103Z,20.40
2023-05-21T01:41:10.893Z,20.30
2023-05-21T01:43:40.259Z,20.30
2023-05-21T01:46:11.232Z,20.20
2023-05-21T01:48:39.524Z,20.30
2023-05-21T01:51:07.004Z,20.20
2023-05-21T01:53:35.173Z,20.20
2023-05-21T01:56:02.960Z,20.10
2023-05-21T01:58:30.611Z,20.00
2023-05-21T02:00:57.946Z,20.00
2023-05-21T02:03:31.160Z,20.00
2023-05-21T02:05:58.906Z,20.00
2023-05-21T02:08:27.365Z,20.00
2023-05-21T02:10:55.806Z,20.10
2023-05-21T02:13:26.271Z,20.00
2023-05-21T02:15:56.449Z,20.00
2023-05-21T02:18:26.503Z,20.00
2023-05-21T02:20:53.905Z,20.00
2023-05-21T02:23:21.196Z,20.10
2023-05-21T02:25:48.576Z,20.00
2023-05-21T02:28:15.999Z,20.00
2023-05-21T02:30:43.298Z,19.90
2023-05-21T02:33:14.484Z,19.90
2023-05-21T02:35:41.983Z,19.90
2023-05-21T02:38:09.347Z,19.80
2023-05-21T02:40:36.970Z,19.70
2023-05-21T02:43:04.283Z,19.70
2023-05-21T02:45:33.148Z,19.70
2023-05-21T02:48:00.606Z,19.70
2023-05-21T02:50:31.168Z,19.70
2023-05-21T02:52:59.922Z,19.80
2023-05-21T02:55:27.893Z,19.80
2023-05-21T02:57:55.438Z,19.90
2023-05-21T03:00:22.761Z,19.90
2023-05-21T03:02:50.325Z,19.90
2023-05-21T03:05:17.750Z,19.90
2023-05-21T03:07:45.290Z,19.90
2023-05-21T03:10:12.548Z,20.00
2023-05-21T03:12:39.952Z,20.00
2023-05-21T03:15:07.645Z,20.00
2023-05-21T03:17:35.278Z,20.10
2023-05-21T03:20:05.926Z,20.00
2023-05-21T03:22:33.473Z,20.00
2023-05-21T03:25:01.945Z,20.00
2023-05-21T03:27:34.758Z,20.10
2023-05-21T03:30:06.858Z,20.10
2023-05-21T03:32:41.739Z,20.10
2023-05-21T03:35:09.705Z,20.10
2023-05-21T03:37:37.082Z,20.10
2023-05-21T03:40:04.894Z,20.10
2023-05-21T03:42:32.449Z,20.10
2023-05-21T03:44:59.798Z,20.00
2023-05-21T03:47:59.370Z,20.00
2023-05-21T03:50:26.891Z,20.00
2023-05-21T03:52:54.385Z,20.00
2023-05-21T03:55:21.982Z,19.90
2023-05-21T03:57:49.436Z,20.00
2023-05-21T04:00:17.107Z,20.00
2023-05-21T04:02:44.428Z,19.90
2023-05-21T04:05:14.965Z,20.00
2023-05-21T04:07:42.393Z,20.00
2023-05-21T04:10:09.869Z,20.00
2023-05-21T04:12:37.263Z,20.10
2023-05-21T04:15:05.913Z,20.10
2023-05-21T04:17:34.612Z,20.10
2023-05-21T04:20:02.808Z,20.10
2023-05-21T04:22:32.328Z,20.10
2023-05-21T04:25:00.260Z,20.10
2023-05-21T04:27:32.598Z,20.10
2023-05-21T04:30:00.431Z,20.10
2023-05-21T04:32:28.791Z,20.10
2023-05-21T04:34:56.381Z,20.10
2023-05-21T04:37:28.076Z,20.20
2023-05-21T04:39:57.407Z,20.20
2023-05-21T04:42:26.353Z,20.20
2023-05-21T04:44:56.152Z,20.20
2023-05-21T04:47:23.450Z,20.20
2023-05-21T04:49:51.101Z,20.20
2023-05-21T04:52:18.896Z,20.20
2023-05-21T04:54:47.969Z,20.20
2023-05-21T04:57:15.793Z,20.30
2023-05-21T04:59:43.772Z,20.30
2023-05-21T05:02:11.072Z,20.40
2023-05-21T05:04:38.858Z,20.30
2023-05-21T05:07:06.714Z,20.30
2023-05-21T05:09:34.265Z,20.40
2023-05-21T05:12:01.985Z,20.40
2023-05-21T05:14:29.624Z,20.40
2023-05-21T05:17:00.728Z,20.40
2023-05-21T05:19:29.151Z,20.40
2023-05-21T05:21:56.742Z,20.40
2023-05-21T05:24:24.267Z,20.40
2023-05-21T05:26:52.258Z,20.50
2023-05-21T05:29:19.511Z,20.50
2023-05-21T05:31:48.081Z,20.60
2023-05-21T05:34:16.408Z,20.60
2023-05-21T05:36:43.712Z,20.60
2023-05-21T05:39:11.169Z,20.60
2023-05-21T05:41:39.394Z,20.60
2023-05-21T05:44:08.913Z,20.70
2023-05-21T05:46:38.410Z,20.80
2023-05-21T05:49:06.806Z,20.90
2023-05-21T05:51:34.186Z,21.00
2023-05-21T05:54:01.717Z,21.00
2023-05-21T05:56:29.207Z,21.10
2023-05-21T05:58:56.544Z,21.10
2023-05-21T06:01:27.135Z,21.10
2023-05-21T06:03:54.937Z,21.20
2023-05-21T06:06:23.482Z,21.30
2023-05-21T06:08:50.837Z,21.40
2023-05-21T06:11:19.918Z,21.40
2023-05-21T06:13:47.459Z,21.50
2023-05-21T06:16:17.675Z,21.60
2023-05-21T06:18:44.918Z,21.60
2023-05-21T06:21:12.358Z,21.70
2023-05-21T06:23:40.035Z,21.80
2023-05-21T06:26:07.842Z,21.90
2023-05-21T06:28:36.423Z,22.00
2023-05-21T06:31:04.583Z,22.10
2023-05-21T06:33:33.571Z,22.00
2023-05-21T06:36:01.495Z,22.00
2023-05-21T06:38:29.352Z,22.10
2023-05-21T06:40:58.506Z,22.20
2023-05-21T06:43:47.885Z,22.40
2023-05-21T06:46:34.096Z,22.50
2023-05-21T06:49:02.006Z,22.60
2023-05-21T06:51:29.265Z,22.70
2023-05-21T06:53:56.725Z,22.70
2023-05-21T06:56:24.177Z,22.60
2023-05-21T06:58:54.619Z,22.60
2023-05-21T07:01:23.466Z,22.60
2023-05-21T07:03:51.319Z,22.60
2023-05-21T07:06:18.976Z,22.50
2023-05-21T07:08:48.209Z,22.50
2023-05-21T07:11:15.612Z,22.50
2023-05-21T07:13:43.080Z,22.40
2023-05-21T07:16:10.755Z,22.30
2023-05-21T07:18:39.839Z,22.20
2023-05-21T07:21:07.144Z,22.20
2023-05-21T07:23:34.535Z,22.20
2023-05-21T07:26:02.084Z,22.30
2023-05-21T07:28:29.935Z,22.40
2023-05-21T07:30:57.502Z,22.50
2023-05-21T07:33:32.221Z,22.70
2023-05-21T07:35:59.501Z,22.90
2023-05-21T07:38:27.642Z,22.90
2023-05-21T07:40:54.898Z,22.90
2023-05-21T07:43:22.360Z,23.10
2023-05-21T07:45:49.695Z,23.10
2023-05-21T07:48:18.008Z,23.20
2023-05-21T07:50:59.317Z,23.30
2023-05-21T07:53:27.529Z,23.30
2023-05-21T07:55:55.602Z,23.40
2023-05-21T07:58:27.408Z,23.50
2023-05-21T08:00:54.793Z,23.60
2023-05-21T08:03:22.930Z,23.70
2023-05-21T08:05:51.088Z,23.80
2023-05-21T08:08:19.873Z,23.80
2023-05-21T08:10:47.981Z,23.80
2023-05-21T08:13:16.834Z,23.60
2023-05-21T08:15:45.843Z,23.60
2023-05-21T08:18:13.099Z,23.60
2023-05-21T08:20:43.473Z,23.60
2023-05-21T08:23:11.865Z,23.70
2023-05-21T08:25:46.828Z,23.80
2023-05-21T08:28:14.781Z,23.80
2023-05-21T08:30:42.030Z,23.80
2023-05-21T08:33:09.644Z,23.90
2023-05-21T08:35:37.297Z,24.00
2023-05-21T08:38:17.768Z,23.90
2023-05-21T08:40:55.943Z,24.00
2023-05-21T08:43:28.671Z,23.90
2023-05-21T08:45:58.841Z,24.00
2023-05-21T08:48:31.605Z,24.10
2023-05-21T08:51:01.330Z,24.20
2023-05-21T08:53:36.372Z,24.20
2023-05-21T08:56:07.754Z,24.20
2023-05-21T08:58:56.425Z,24.30
2023-05-21T09:01:28.029Z,24.30
2023-05-21T09:04:16.266Z,24.30
2023-05-21T09:06:49.070Z,24.20
2023-05-21T09:09:33.183Z,24.20
2023-05-21T09:12:01.469Z,24.20
2023-05-21T09:14:28.956Z,24.10
2023-05-21T09:17:20.452Z,24.00
2023-05-21T09:20:11.289Z,24.00
2023-05-21T09:22:45.716Z,24.00
2023-05-21T09:25:32.155Z,24.00
2023-05-21T09:28:12.380Z,24.10
2023-05-21T09:30:48.494Z,24.10
2023-05-21T09:33:27.449Z,24.10
2023-05-21T09:35:56.256Z,24.10
2023-05-21T09:38:28.036Z,24.10
2023-05-21T09:40:58.832Z,24.10
2023-05-21T09:43:27.555Z,24.10
2023-05-21T09:45:58.949Z,24.10
2023-05-21T09:48:39.650Z,24.10
2023-05-21T09:51:20.566Z,24.20
2023-05-21T09:53:58.226Z,24.20
2023-05-21T09:56:29.501Z,24.20
2023-05-21T09:59:04.325Z,24.30
2023-05-21T10:01:36.154Z,24.30
2023-05-21T10:04:08.422Z,24.30
2023-05-21T10:06:42.635Z,24.30
2023-05-21T10:09:11.631Z,24.30
2023-05-21T10:11:43.142Z,24.30
2023-05-21T10:14:19.714Z,24.40
2023-05-21T10:16:48.160Z,24.40
2023-05-21T10:19:17.027Z,24.50
2023-05-21T10:21:45.930Z,24.60
2023-05-21T10:24:14.233Z,24.70
2023-05-21T10:26:41.774Z,24.70
2023-05-21T10:29:10.205Z,24.70
2023-05-21T10:31:39.223Z,24.70
2023-05-21T10:34:06.590Z,24.70
2023-05-21T10:36:36.110Z,24.70
2023-05-21T10:39:03.743Z,24.80
2023-05-21T10:41:40.712Z,24.80
2023-05-21T10:44:13.949Z,24.80
2023-05-21T10:46:48.234Z,24.90
2023-05-21T10:49:30.301Z,24.90
2023-05-21T10:52:25.091Z,24.90
2023-05-21T10:55:37.177Z,24.70
2023-05-21T10:58:30.338Z,24.70
2023-05-21T11:00:59.306Z,24.80
2023-05-21T11:03:27.483Z,24.90
2023-05-21T11:05:56.512Z,25.00
2023-05-21T11:08:31.994Z,25.10
2023-05-21T11:10:59.655Z,25.20
2023-05-21T11:13:28.653Z,25.30
2023-05-21T11:15:58.845Z,25.40
2023-05-21T11:18:36.177Z,25.60
2023-05-21T11:21:10.375Z,25.80
2023-05-21T11:23:59.400Z,26.00
2023-05-21T11:26:55.277Z,26.10
2023-05-21T11:29:33.705Z,26.20
2023-05-21T11:32:03.049Z,26.40
2023-05-21T11:34:47.569Z,26.40
2023-05-21T11:37:17.821Z,26.50
2023-05-21T11:39:46.197Z,26.40
2023-05-21T11:42:13.826Z,26.40
2023-05-21T11:44:45.974Z,26.50
2023-05-21T11:47:18.557Z,26.60
2023-05-21T11:49:46.700Z,26.70
2023-05-21T11:52:14.824Z,26.70
2023-05-21T11:54:48.654Z,26.70
2023-05-21T11:57:18.644Z,26.80
2023-05-21T11:59:47.310Z,26.80
2023-05-21T12:02:18.843Z,26.80
2023-05-21T12:04:48.597Z,26.90
2023-05-21T12:07:18.045Z,27.00
2023-05-21T12:09:48.159Z,27.20
2023-05-21T12:12:25.606Z,27.30
2023-05-21T12:14:54.554Z,27.40
2023-05-21T12:17:23.781Z,27.50
2023-05-21T12:19:53.280Z,27.70
2023-05-21T12:22:21.541Z,27.80
2023-05-21T12:24:48.936Z,28.00
2023-05-21T12:27:16.900Z,28.20
2023-05-21T12:29:46.912Z,28.20
2023-05-21T12:32:15.629Z,28.30
2023-05-21T12:34:45.644Z,28.30
2023-05-21T12:37:22.968Z,28.50
2023-05-21T12:39:52.994Z,28.60
2023-05-21T12:42:30.549Z,28.90
2023-05-21T12:44:58.392Z,28.90
2023-05-21T12:47:27.866Z,28.80
2023-05-21T12:50:00.629Z,28.50
2023-05-21T12:52:31.216Z,28.40
2023-05-21T12:54:59.715Z,28.70
2023-05-21T12:57:35.188Z,29.20
2023-05-21T13:00:03.225Z,29.70
2023-05-21T13:02:34.462Z,30.40
2023-05-21T13:05:04.302Z,31.70
2023-05-21T13:07:38.264Z,33.50
2023-05-21T13:10:06.827Z,35.40
2023-05-21T13:12:35.841Z,36.90
2023-05-21T13:17:38.212Z,39.60
2023-05-21T13:20:09.463Z,40.20
2023-05-21T13:22:46.853Z,40.40
2023-05-21T13:25:32.991Z,40.60
2023-05-21T13:28:05.228Z,41.40
2023-05-21T13:30:35.884Z,41.90
2023-05-21T13:33:04.024Z,42.20
2023-05-21T13:35:32.250Z,42.20
2023-05-21T13:37:59.554Z,41.80
2023-05-21T13:40:27.099Z,41.60
2023-05-21T13:42:54.407Z,40.90
2023-05-21T13:45:21.883Z,40.20
2023-05-21T13:47:49.365Z,39.70
2023-05-21T13:50:16.831Z,39.10
2023-05-21T13:52:44.502Z,38.20
2023-05-21T13:55:12.080Z,37.70
2023-05-21T13:57:40.695Z,37.70
2023-05-21T14:00:10.582Z,37.50
2023-05-21T14:02:38.263Z,37.40
2023-05-21T14:05:06.440Z,37.50
2023-05-21T14:07:33.769Z,37.60
2023-05-21T14:10:01.641Z,37.50
2023-05-21T14:12:33.434Z,37.30
2023-05-21T14:15:01.099Z,37.20
2023-05-21T14:17:30.159Z,36.90
2023-05-21T14:19:57.557Z,37.10
2023-05-21T14:22:24.792Z,37.10
2023-05-21T14:24:52.877Z,37.10
2023-05-21T14:27:20.232Z,37.20
2023-05-21T14:29:47.595Z,37.10
2023-05-21T14:32:14.996Z,37.00
2023-05-21T14:34:42.305Z,37.00
2023-05-21T14:37:09.515Z,37.10
2023-05-21T14:39:36.796Z,36.80
2023-05-21T14:42:04.993Z,36.60
2023-05-21T14:44:32.777Z,36.00
2023-05-21T14:47:00.161Z,36.00
2023-05-21T14:49:27.705Z,36.20
2023-05-21T14:51:55.149Z,36.20
2023-05-21T14:54:22.422Z,36.70
2023-05-21T14:56:49.655Z,37.20
2023-05-21T14:59:17.012Z,37.30
2023-05-21T15:01:44.398Z,37.70
2023-05-21T15:04:11.994Z,38.30
2023-05-21T15:06:39.469Z,38.70
2023-05-21T15:09:06.746Z,39.00
2023-05-21T15:11:34.482Z,39.40
2023-05-21T15:14:01.813Z,40.10
2023-05-21T15:16:29.163Z,40.60
2023-05-21T15:18:56.892Z,41.40
2023-05-21T15:21:26.532Z,41.90
2023-05-21T15:23:55.397Z,42.20
2023-05-21T15:26:25.191Z,42.20
2023-05-21T15:28:52.984Z,42.70
2023-05-21T15:31:20.603Z,43.00
2023-05-21T15:33:48.046Z,42.70
2023-05-21T15:36:15.519Z,41.60
2023-05-21T15:38:42.753Z,40.40
2023-05-21T15:41:10.059Z,38.50
2023-05-21T15:43:37.416Z,37.40
2023-05-21T15:46:05.187Z,37.80
2023-05-21T15:48:32.625Z,39.00
2023-05-21T15:51:02.599Z,40.20
2023-05-21T15:53:29.848Z,41.20
2023-05-21T15:55:57.411Z,41.50
2023-05-21T15:58:24.813Z,41.20
2023-05-21T16:00:52.210Z,40.80
2023-05-21T16:03:19.520Z,40.30
2023-05-21T16:05:46.833Z,39.50
2023-05-21T16:08:14.347Z,38.60
2023-05-21T16:10:41.771Z,37.80
2023-05-21T16:13:09.027Z,36.80
2023-05-21T16:15:36.757Z,36.10
2023-05-21T16:18:04.515Z,34.80
2023-05-21T16:20:32.670Z,33.40
2023-05-21T16:23:00.054Z,32.30
2023-05-21T16:25:27.336Z,31.10
2023-05-21T16:27:54.650Z,30.30
2023-05-21T16:30:21.939Z,29.70
2023-05-21T16:32:49.374Z,29.20
2023-05-21T16:35:16.686Z,28.80
2023-05-21T16:37:43.997Z,28.40
2023-05-21T16:40:12.299Z,28.10
2023-05-21T16:42:40.018Z,28.00
2023-05-21T16:45:07.990Z,28.00
2023-05-21T16:47:35.254Z,28.10
2023-05-21T16:50:02.779Z,28.10
2023-05-21T16:52:31.495Z,28.20
2023-05-21T16:54:58.802Z,28.20
2023-05-21T16:57:26.048Z,28.20
2023-05-21T16:59:53.369Z,28.10
2023-05-21T17:02:20.841Z,27.90
2023-05-21T17:04:48.228Z,27.70
2023-05-21T17:07:16.188Z,27.60
2023-05-21T17:09:43.569Z,27.50
2023-05-21T17:12:10.925Z,27.20
2023-05-21T17:14:39.751Z,27.10
2023-05-21T17:17:07.433Z,27.10
2023-05-21T17:19:34.786Z,26.90
2023-05-21T17:22:02.140Z,27.00
2023-05-21T17:24:29.437Z,27.00
2023-05-21T17:26:56.856Z,27.00
2023-05-21T17:29:24.068Z,27.00
2023-05-21T17:31:51.558Z,26.90
2023-05-21T17:34:18.866Z,26.90
2023-05-21T17:36:46.237Z,26.70
2023-05-21T17:39:13.567Z,26.60
2023-05-21T17:41:40.908Z,26.50
2023-05-21T17:44:08.243Z,26.40
2023-05-21T17:46:35.721Z,26.30
2023-05-21T17:49:03.215Z,26.30
2023-05-21T17:51:31.628Z,26.20
2023-05-21T17:53:59.393Z,26.20
2023-05-21T17:56:29.568Z,26.10
2023-05-21T17:58:56.842Z,26.00
2023-05-21T18:01:24.401Z,25.90
2023-05-21T18:03:51.888Z,26.00
2023-05-21T18:06:19.235Z,26.00
2023-05-21T18:08:46.495Z,25.90
2023-05-21T18:11:13.880Z,25.90
2023-05-21T18:13:41.138Z,25.80
2023-05-21T18:16:09.308Z,25.80
2023-05-21T18:18:36.584Z,25.80
2023-05-21T18:21:04.015Z,25.80
2023-05-21T18:23:31.422Z,25.70
2023-05-21T18:25:58.669Z,25.70
2023-05-21T18:28:27.576Z,25.60
2023-05-21T18:30:55.755Z,25.30
2023-05-21T18:33:23.190Z,25.20
2023-05-21T18:35:50.422Z,25.20
2023-05-21T18:38:17.702Z,25.20
2023-05-21T18:40:46.004Z,25.20
2023-05-21T18:43:14.281Z,25.10
2023-05-21T18:45:41.613Z,24.90
2023-05-21T18:48:08.889Z,24.90
2023-05-21T18:50:37.296Z,24.70
2023-05-21T18:53:05.911Z,24.70
2023-05-21T18:55:34.491Z,24.50
2023-05-21T18:58:01.772Z,24.40
2023-05-21T19:00:29.114Z,24.40
2023-05-21T19:02:56.592Z,24.30
2023-05-21T19:05:24.127Z,24.30
2023-05-21T19:07:51.711Z,24.10
2023-05-21T19:10:19.855Z,24.10
2023-05-21T19:12:47.815Z,24.00
2023-05-21T19:15:15.693Z,24.00
2023-05-21T19:17:45.798Z,24.00
2023-05-21T19:20:26.782Z,23.90
2023-05-21T19:22:54.762Z,23.90
2023-05-21T19:25:22.179Z,23.90
2023-05-21T19:27:49.457Z,23.80
2023-05-21T19:30:16.909Z,23.80
2023-05-21T19:32:44.238Z,23.70
2023-05-21T19:35:12.150Z,23.70
2023-05-21T19:37:39.329Z,23.60
2023-05-21T19:40:07.454Z,23.60
2023-05-21T19:42:35.023Z,23.60
2023-05-21T19:45:02.315Z,23.60
2023-05-21T19:47:33.773Z,23.40
2023-05-21T19:50:01.413Z,23.40
2023-05-21T19:52:31.155Z,23.30
2023-05-21T19:55:04.861Z,23.30
2023-05-21T19:57:34.639Z,23.30
2023-05-21T20:00:02.085Z,23.30
2023-05-21T20:02:41.145Z,23.30
2023-05-21T20:05:09.306Z,23.20
2023-05-21T20:07:36.640Z,23.20
2023-05-21T20:10:04.336Z,23.20
2023-05-21T20:12:33.062Z,23.20
2023-05-21T20:15:01.141Z,23.10
2023-05-21T20:17:34.036Z,23.00
2023-05-21T20:20:02.947Z,23.00
2023-05-21T20:22:30.982Z,23.00
2023-05-21T20:24:58.180Z,22.90
2023-05-21T20:27:26.186Z,22.90
2023-05-21T20:29:53.323Z,22.80
2023-05-21T20:32:20.578Z,22.80
2023-05-21T20:35:02.258Z,22.80
2023-05-21T20:37:32.860Z,22.60
2023-05-21T20:40:00.245Z,22.60
2023-05-21T20:42:34.203Z,22.60
2023-05-21T20:45:01.896Z,22.40
2023-05-21T20:47:33.907Z,22.40
2023-05-21T20:50:03.687Z,22.30
2023-05-21T20:52:32.501Z,22.30
2023-05-21T20:54:59.937Z,22.20
2023-05-21T20:57:28.337Z,22.20
2023-05-21T20:59:56.246Z,22.10
2023-05-21T21:02:23.690Z,22.10
2023-05-21T21:04:51.232Z,22.10
2023-05-21T21:07:19.440Z,22.00
2023-05-21T21:09:47.439Z,22.00
2023-05-21T21:12:25.963Z,22.00
2023-05-21T21:14:54.185Z,22.00
2023-05-21T21:17:21.727Z,22.00
2023-05-21T21:19:49.019Z,22.00
2023-05-21T21:22:16.725Z,22.00
2023-05-21T21:24:44.603Z,21.90
2023-05-21T21:27:12.020Z,21.90
2023-05-21T21:29:39.384Z,21.90
2023-05-21T21:32:07.157Z,21.90
2023-05-21T21:34:34.377Z,21.90
2023-05-21T21:37:01.621Z,21.90
2023-05-21T21:39:29.008Z,21.90
2023-05-21T21:41:56.426Z,21.90
2023-05-21T21:44:23.886Z,21.90
2023-05-21T21:46:51.213Z,21.80
2023-05-21T21:49:18.605Z,21.80
2023-05-21T21:51:46.123Z,21.80
2023-05-21T21:54:13.357Z,21.70
2023-05-21T21:56:40.808Z,21.70
2023-05-21T21:59:08.095Z,21.70
2023-05-21T22:01:36.082Z,21.80
2023-05-21T22:04:03.664Z,21.80
2023-05-21T22:06:31.436Z,21.80
2023-05-21T22:08:59.135Z,21.80
2023-05-21T22:11:28.579Z,21.80
2023-05-21T22:13:56.283Z,21.70
2023-05-21T22:16:26.265Z,21.80
2023-05-21T22:18:54.358Z,21.70
2023-05-21T22:21:27.151Z,21.70
2023-05-21T22:23:55.067Z,21.60
2023-05-21T22:26:23.363Z,21.50
2023-05-21T22:28:51.818Z,21.40
2023-05-21T22:31:19.657Z,21.40
2023-05-21T22:33:47.124Z,21.30
2023-05-21T22:36:14.474Z,21.40
2023-05-21T22:38:43.577Z,21.40
2023-05-21T22:41:11.705Z,21.40
2023-05-21T22:43:39.009Z,21.40
2023-05-21T22:46:06.375Z,21.40
2023-05-21T22:48:34.427Z,21.50
2023-05-21T22:51:02.039Z,21.40
2023-05-21T22:53:29.429Z,21.40
2023-05-21T22:55:56.783Z,21.40
2023-05-21T22:58:23.998Z,21.30
2023-05-21T23:00:51.186Z,21.30
2023-05-21T23:03:18.590Z,21.30
2023-05-21T23:05:46.135Z,21.30
2023-05-21T23:08:13.621Z,21.30
2023-05-21T23:10:41.313Z,21.30
2023-05-21T23:13:08.934Z,21.30
2023-05-21T23:15:39.053Z,21.40
2023-05-21T23:18:07.962Z,21.40
2023-05-21T23:20:35.399Z,21.40
2023-05-21T23:23:03.144Z,21.40
2023-05-21T23:25:30.990Z,21.40
2023-05-21T23:27:58.189Z,21.30
2023-05-21T23:30:25.784Z,21.30
2023-05-21T23:32:53.124Z,21.30
2023-05-21T23:35:20.411Z,21.20
2023-05-21T23:37:47.825Z,21.20
2023-05-21T23:40:15.274Z,21.20
2023-05-21T23:42:42.933Z,21.20
2023-05-21T23:45:10.717Z,21.00
2023-05-21T23:47:38.068Z,21.00
2023-05-21T23:50:06.138Z,21.00
2023-05-21T23:52:33.678Z,21.00
2023-05-21T23:55:00.949Z,21.10
2023-05-21T23:57:30.254Z,21.10
2023-05-21T23:59:57.676Z,21.10
